createdAt,value
2022-11-24T18:42:20.992Z,26.20
2022-11-24T18:44:52.682Z,17.60
2022-11-24T18:47:23.055Z,11.90
2022-11-24T18:49:54.309Z,10.00
2022-11-24T18:52:22.861Z,7.90
2022-11-24T18:55:05.937Z,6.10
2022-11-24T18:57:35.753Z,6.60
2022-11-24T19:00:05.112Z,4.50
2022-11-24T19:02:34.346Z,7.00
2022-11-24T19:05:03.424Z,7.50
2022-11-24T19:07:40.834Z,8.80
2022-11-24T19:12:59.873Z,21.00
2022-11-24T19:15:42.292Z,16.00
2022-11-24T19:18:10.594Z,13.70
2022-11-24T19:20:39.217Z,10.70
2022-11-24T19:23:09.053Z,7.80
2022-11-24T19:25:42.958Z,7.00
2022-11-24T19:28:12.890Z,7.40
2022-11-24T19:30:41.662Z,6.00
2022-11-24T19:33:10.467Z,5.10
2022-11-24T19:35:38.538Z,5.90
2022-11-24T19:38:06.498Z,6.70
2022-11-24T19:40:34.980Z,5.90
2022-11-24T19:43:04.051Z,6.20
2022-11-24T19:45:32.741Z,6.00
2022-11-24T19:48:01.658Z,6.60
2022-11-24T19:50:30.528Z,6.30
2022-11-24T19:52:59.320Z,6.90
2022-11-24T19:55:27.534Z,5.70
2022-11-24T19:57:56.562Z,7.60
2022-11-24T20:00:30.596Z,7.70
2022-11-24T20:03:01.678Z,7.90
2022-11-24T20:05:30.686Z,7.40
2022-11-24T20:08:00.917Z,6.00
2022-11-24T20:10:29.067Z,6.70
2022-11-24T20:12:57.142Z,7.40
2022-11-24T20:15:25.209Z,8.90
2022-11-24T20:17:55.877Z,6.90
2022-11-24T20:20:24.723Z,9.20
2022-11-24T20:23:10.811Z,7.20
2022-11-24T20:25:39.237Z,8.70
2022-11-24T20:28:07.803Z,6.40
2022-11-24T20:30:36.569Z,9.40
2022-11-24T20:33:04.663Z,8.90
2022-11-24T20:35:33.849Z,7.60
2022-11-24T20:38:03.987Z,6.10
2022-11-24T20:40:32.244Z,6.00
2022-11-24T20:43:00.696Z,5.70
2022-11-24T20:45:28.799Z,6.00
2022-11-24T20:47:56.874Z,7.30
2022-11-24T20:50:25.455Z,5.50
2022-11-24T21:05:08.056Z,10.00
2022-11-24T21:07:36.386Z,7.80
2022-11-24T21:10:05.044Z,7.10
2022-11-24T21:12:33.383Z,7.30
2022-11-24T21:15:01.393Z,5.70
2022-11-24T21:17:31.895Z,5.70
2022-11-24T21:20:01.313Z,6.20
2022-11-24T21:22:29.791Z,8.20
2022-11-24T21:24:57.877Z,6.50
2022-11-24T21:27:27.245Z,7.80
2022-11-24T21:29:55.663Z,7.00
2022-11-24T21:32:26.556Z,7.80
2022-11-24T21:34:55.353Z,7.10
2022-11-24T21:37:23.863Z,9.30
2022-11-24T21:39:52.525Z,9.10
2022-11-24T21:42:21.450Z,11.60
2022-11-24T21:44:49.502Z,14.30
2022-11-24T21:47:17.597Z,11.50
2022-11-24T21:49:45.682Z,11.30
2022-11-24T21:52:13.750Z,11.20
2022-11-24T21:54:42.883Z,9.80
2022-11-24T21:57:15.048Z,10.20
2022-11-24T21:59:43.213Z,9.90
2022-11-24T22:02:13.263Z,9.40
2022-11-24T22:04:41.695Z,10.90
2022-11-24T22:07:13.221Z,11.90
2022-11-24T22:09:41.958Z,13.10
2022-11-24T22:12:10.128Z,13.50
2022-11-24T22:14:40.569Z,15.60
2022-11-24T22:17:08.966Z,12.20
2022-11-24T22:19:38.358Z,12.30
2022-11-24T22:22:07.055Z,14.80
2022-11-24T22:24:35.187Z,18.00
2022-11-24T22:27:04.774Z,19.50
2022-11-24T22:29:33.248Z,16.80
2022-11-24T22:32:02.672Z,16.10
2022-11-24T22:34:30.980Z,14.40
2022-11-24T22:36:59.049Z,15.50
2022-11-24T22:39:27.172Z,15.40
2022-11-24T22:41:55.262Z,13.60
2022-11-24T22:44:23.371Z,13.80
2022-11-24T22:46:51.846Z,13.50
2022-11-24T22:49:19.974Z,14.50
2022-11-24T22:51:48.115Z,16.20
2022-11-24T22:54:16.173Z,11.70
2022-11-24T22:56:44.248Z,14.00
2022-11-24T22:59:12.186Z,16.80
2022-11-24T23:01:40.728Z,16.00
2022-11-24T23:04:09.617Z,14.40
2022-11-24T23:06:38.224Z,13.40
2022-11-24T23:09:06.668Z,19.80
2022-11-24T23:11:38.583Z,21.60
2022-11-24T23:14:11.968Z,19.30
2022-11-24T23:16:41.183Z,21.70
2022-11-24T23:19:09.751Z,20.50
2022-11-24T23:21:39.324Z,22.50
2022-11-24T23:24:14.507Z,28.30
2022-11-24T23:26:43.764Z,35.30
2022-11-24T23:29:12.451Z,30.10
2022-11-24T23:31:40.608Z,20.30
2022-11-24T23:34:09.324Z,19.70
2022-11-24T23:36:37.878Z,20.30
2022-11-24T23:39:08.925Z,17.40
2022-11-24T23:41:37.719Z,21.10
2022-11-24T23:44:06.597Z,19.10
2022-11-24T23:46:35.305Z,18.80
2022-11-24T23:49:03.951Z,15.70
2022-11-24T23:51:33.602Z,17.50
2022-11-24T23:54:01.860Z,17.00
2022-11-24T23:56:32.884Z,19.80
2022-11-24T23:59:03.050Z,20.20
